createdAt,value
2018-11-05T00:00:06.215Z,8.86
2018-11-05T00:01:06.227Z,8.92
2018-11-05T00:02:06.237Z,8.87
2018-11-05T00:03:06.261Z,8.92
2018-11-05T00:05:06.270Z,8.79
2018-11-05T00:06:06.281Z,8.86
2018-11-05T00:07:06.293Z,8.76
2018-11-05T00:08:06.333Z,8.76
2018-11-05T00:09:06.314Z,8.83
2018-11-05T00:10:06.353Z,8.84
2018-11-05T00:11:06.334Z,8.81
2018-11-05T00:12:06.345Z,8.84
2018-11-05T00:13:06.355Z,8.74
2018-11-05T00:14:06.368Z,8.76
2018-11-05T00:15:06.428Z,8.84
2018-11-05T00:16:06.388Z,8.76
2018-11-05T00:17:06.399Z,8.71
2018-11-05T00:18:06.409Z,8.83
2018-11-05T00:19:06.421Z,8.81
2018-11-05T00:20:06.430Z,8.80
2018-11-05T00:21:06.443Z,8.80
2018-11-05T00:22:06.453Z,8.77
2018-11-05T00:23:06.465Z,8.84
2018-11-05T00:24:06.478Z,8.76
2018-11-05T00:25:06.543Z,8.74
2018-11-05T00:26:06.573Z,8.71
2018-11-05T00:27:06.514Z,8.79
2018-11-05T00:28:06.518Z,8.77
2018-11-05T00:29:06.528Z,8.81
2018-11-05T00:30:06.540Z,8.76
2018-11-05T00:31:06.551Z,8.68
2018-11-05T00:32:06.560Z,8.76
2018-11-05T00:33:06.579Z,8.73
2018-11-05T00:34:06.745Z,8.74
2018-11-05T00:35:06.863Z,8.80
2018-11-05T00:37:06.614Z,8.73
2018-11-05T00:38:06.627Z,8.77
2018-11-05T00:39:06.638Z,8.66
2018-11-05T00:40:06.647Z,8.65
2018-11-05T00:41:06.656Z,8.62
2018-11-05T00:42:06.671Z,8.68
2018-11-05T00:43:06.678Z,8.65
2018-11-05T00:44:06.691Z,8.74
2018-11-05T00:45:06.705Z,8.65
2018-11-05T00:46:06.713Z,8.74
2018-11-05T00:47:06.721Z,8.73
2018-11-05T00:48:06.731Z,8.59
2018-11-05T00:49:06.747Z,8.70
2018-11-05T00:50:06.755Z,8.71
2018-11-05T00:51:06.766Z,8.65
2018-11-05T00:52:06.777Z,8.66
2018-11-05T00:53:06.785Z,8.71
2018-11-05T00:54:06.799Z,8.66
2018-11-05T00:55:06.811Z,8.63
2018-11-05T00:56:06.817Z,8.71
2018-11-05T00:57:06.855Z,8.59
2018-11-05T00:58:06.840Z,8.71
2018-11-05T00:59:06.850Z,8.66
2018-11-05T01:00:06.861Z,8.58
2018-11-05T01:01:06.870Z,8.58
2018-11-05T01:02:06.882Z,8.62
2018-11-05T01:03:06.892Z,8.68
2018-11-05T01:04:06.904Z,8.65
2018-11-05T01:05:06.914Z,8.66
2018-11-05T01:06:06.927Z,8.65
2018-11-05T01:07:06.935Z,8.66
2018-11-05T01:08:06.947Z,8.68
2018-11-05T01:09:06.983Z,8.62
2018-11-05T01:10:06.969Z,8.63
2018-11-05T01:11:06.984Z,8.71
2018-11-05T01:12:06.989Z,8.70
2018-11-05T01:13:07.002Z,8.62
2018-11-05T01:14:07.009Z,8.73
2018-11-05T01:15:07.040Z,8.66
2018-11-05T01:16:07.035Z,8.53
2018-11-05T01:17:07.043Z,8.55
2018-11-05T01:18:07.055Z,8.62
2018-11-05T01:19:07.074Z,8.55
2018-11-05T01:20:07.074Z,8.55
2018-11-05T01:21:07.114Z,8.62
2018-11-05T01:22:07.139Z,8.56
2018-11-05T01:23:07.112Z,8.59
2018-11-05T01:24:07.117Z,8.53
2018-11-05T01:25:07.127Z,8.52
2018-11-05T01:26:07.137Z,8.48
2018-11-05T01:27:07.146Z,8.50
2018-11-05T01:28:07.159Z,8.62
2018-11-05T01:29:07.213Z,8.59
2018-11-05T01:30:07.240Z,8.56
2018-11-05T01:31:07.189Z,8.53
2018-11-05T01:32:07.211Z,8.53
2018-11-05T01:33:07.210Z,8.59
2018-11-05T01:34:07.235Z,8.56
2018-11-05T01:35:07.232Z,8.56
2018-11-05T01:36:07.242Z,8.53
2018-11-05T01:37:07.268Z,8.59
2018-11-05T01:38:07.263Z,8.58
2018-11-05T01:39:07.326Z,8.59
2018-11-05T01:40:07.496Z,8.56
2018-11-05T01:42:07.804Z,8.55
2018-11-05T01:43:07.927Z,8.58
2018-11-05T01:44:07.328Z,8.52
2018-11-05T01:45:07.339Z,8.58
2018-11-05T01:46:07.347Z,8.52
2018-11-05T01:47:07.358Z,8.48
2018-11-05T01:48:07.368Z,8.59
2018-11-05T01:49:07.380Z,8.50
2018-11-05T01:50:07.388Z,8.59
2018-11-05T01:51:07.402Z,8.55
2018-11-05T01:52:07.409Z,8.47
2018-11-05T01:53:07.420Z,8.48
2018-11-05T01:54:07.433Z,8.45
2018-11-05T01:55:07.450Z,8.47
2018-11-05T01:56:07.461Z,8.56
2018-11-05T01:57:07.469Z,8.48
2018-11-05T01:58:07.472Z,8.48
2018-11-05T01:59:07.489Z,8.50
2018-11-05T02:00:07.498Z,8.47
2018-11-05T02:01:07.504Z,8.50
2018-11-05T02:02:07.515Z,8.48
2018-11-05T02:03:07.526Z,8.48
2018-11-05T02:04:07.536Z,8.48
2018-11-05T02:05:07.545Z,8.50
2018-11-05T02:06:07.558Z,8.50
2018-11-05T02:07:07.587Z,8.47
2018-11-05T02:08:07.637Z,8.40
2018-11-05T02:09:07.690Z,8.38
2018-11-05T02:10:07.665Z,8.37
2018-11-05T02:11:07.609Z,8.38
2018-11-05T02:13:08.179Z,8.41
2018-11-05T02:14:07.641Z,8.40
2018-11-05T02:15:07.654Z,8.40
2018-11-05T02:16:07.757Z,8.40
2018-11-05T02:17:07.673Z,8.34
2018-11-05T02:18:07.692Z,8.36
2018-11-05T02:19:07.693Z,8.33
2018-11-05T02:20:07.704Z,8.36
2018-11-05T02:21:07.715Z,8.33
2018-11-05T02:22:07.727Z,8.36
2018-11-05T02:23:07.735Z,8.37
2018-11-05T02:24:07.747Z,8.38
2018-11-05T02:25:07.758Z,8.37
2018-11-05T02:26:07.770Z,8.28
2018-11-05T02:27:07.849Z,8.30
2018-11-05T02:28:07.788Z,8.25
2018-11-05T02:29:07.800Z,8.29
2018-11-05T02:30:07.822Z,8.34
2018-11-05T02:31:07.822Z,8.26
2018-11-05T02:32:07.830Z,8.29
2018-11-05T02:33:07.843Z,8.34
2018-11-05T02:34:08.071Z,8.29
2018-11-05T02:35:07.873Z,8.30
2018-11-05T02:36:07.877Z,8.34
2018-11-05T02:37:07.918Z,8.36
2018-11-05T02:38:07.910Z,8.30
2018-11-05T02:39:07.904Z,8.29
2018-11-05T02:40:07.915Z,8.36
2018-11-05T02:41:07.926Z,8.34
2018-11-05T02:42:07.937Z,8.36
2018-11-05T02:43:07.960Z,8.38
2018-11-05T02:44:08.015Z,8.33
2018-11-05T02:45:08.070Z,8.34
2018-11-05T02:46:08.082Z,8.36
2018-11-05T02:47:08.388Z,8.34
2018-11-05T02:48:08.564Z,8.29
2018-11-05T02:49:08.008Z,8.36
2018-11-05T02:50:08.025Z,8.33
2018-11-05T02:51:08.030Z,8.34
2018-11-05T02:52:08.043Z,8.34
2018-11-05T02:53:08.082Z,8.34
2018-11-05T02:54:08.063Z,8.22
2018-11-05T02:55:08.073Z,8.23
2018-11-05T02:56:08.084Z,8.20
2018-11-05T02:57:08.100Z,8.25
2018-11-05T02:58:08.104Z,8.19
2018-11-05T02:59:08.137Z,8.18
2018-11-05T03:00:08.126Z,8.15
2018-11-05T03:01:08.137Z,8.22
2018-11-05T03:02:08.145Z,8.23
2018-11-05T03:03:08.242Z,8.11
2018-11-05T03:04:08.169Z,8.18
2018-11-05T03:05:08.181Z,8.16
2018-11-05T03:06:08.509Z,8.19
2018-11-05T03:07:08.201Z,8.19
2018-11-05T03:08:08.209Z,8.16
2018-11-05T03:09:08.224Z,8.19
2018-11-05T03:10:08.231Z,8.19
2018-11-05T03:11:08.242Z,8.22
2018-11-05T03:12:08.256Z,8.19
2018-11-05T03:13:08.261Z,8.19
2018-11-05T03:14:08.379Z,8.20
2018-11-05T03:15:08.290Z,8.19
2018-11-05T03:16:08.347Z,8.11
2018-11-05T03:17:09.039Z,8.19
2018-11-05T03:18:08.317Z,8.20
2018-11-05T03:19:08.329Z,8.22
2018-11-05T03:20:08.339Z,8.11
2018-11-05T03:21:08.347Z,8.22
2018-11-05T03:22:08.356Z,8.18
2018-11-05T03:23:08.367Z,8.16
2018-11-05T03:24:08.378Z,8.05
2018-11-05T03:25:08.389Z,8.11
2018-11-05T03:26:08.401Z,8.08
2018-11-05T03:27:08.412Z,8.11
2018-11-05T03:28:08.418Z,8.05
2018-11-05T03:29:08.433Z,8.04
2018-11-05T03:30:08.443Z,8.05
2018-11-05T03:31:08.451Z,8.08
2018-11-05T03:32:08.466Z,8.08
2018-11-05T03:33:08.470Z,8.02
2018-11-05T03:34:08.485Z,8.02
2018-11-05T03:35:08.492Z,8.00
2018-11-05T03:36:08.509Z,7.97
2018-11-05T03:37:08.523Z,7.97
2018-11-05T03:38:08.525Z,7.93
2018-11-05T03:39:08.536Z,7.92
2018-11-05T03:40:08.546Z,8.02
2018-11-05T03:41:08.562Z,8.05
2018-11-05T03:42:08.574Z,7.87
2018-11-05T03:43:08.588Z,8.01
2018-11-05T03:44:08.597Z,7.95
2018-11-05T03:45:08.705Z,7.98
2018-11-05T03:49:08.694Z,7.90
2018-11-05T03:50:08.652Z,7.97
2018-11-05T03:51:08.664Z,7.92
2018-11-05T03:52:08.674Z,7.93
2018-11-05T03:53:08.684Z,7.90
2018-11-05T03:54:08.704Z,7.93
2018-11-05T03:55:08.708Z,7.89
2018-11-05T03:56:08.874Z,7.92
2018-11-05T03:57:08.727Z,8.00
2018-11-05T03:58:08.737Z,7.98
2018-11-05T03:59:08.743Z,7.97
2018-11-05T04:00:08.756Z,7.98
2018-11-05T04:01:08.811Z,7.93
2018-11-05T04:02:08.778Z,7.97
2018-11-05T04:03:08.869Z,8.00
2018-11-05T04:04:08.803Z,8.02
2018-11-05T04:05:08.808Z,8.00
2018-11-05T04:06:08.838Z,8.00
2018-11-05T04:07:08.846Z,7.93
2018-11-05T04:08:08.896Z,7.97
2018-11-05T04:09:08.863Z,7.93
2018-11-05T04:10:08.863Z,7.92
2018-11-05T04:11:08.879Z,8.00
2018-11-05T04:12:08.882Z,7.92
2018-11-05T04:13:08.895Z,7.95
2018-11-05T04:14:08.909Z,7.90
2018-11-05T04:15:08.919Z,7.93
2018-11-05T04:16:08.952Z,7.93
2018-11-05T04:18:08.945Z,7.92
2018-11-05T04:19:08.959Z,7.87
2018-11-05T04:20:08.968Z,7.87
2018-11-05T04:21:08.982Z,7.95
2018-11-05T04:22:08.987Z,7.98
2018-11-05T04:23:08.997Z,8.00
2018-11-05T04:24:09.006Z,7.98
2018-11-05T04:25:09.024Z,7.98
2018-11-05T04:26:09.027Z,7.95
2018-11-05T04:27:09.038Z,8.00
2018-11-05T04:28:09.049Z,7.85
2018-11-05T04:29:09.110Z,7.98
2018-11-05T04:30:09.073Z,8.01
2018-11-05T04:31:09.082Z,7.97
2018-11-05T04:32:09.094Z,7.98
2018-11-05T04:33:09.109Z,7.95
2018-11-05T04:34:09.125Z,7.95
2018-11-05T04:35:09.121Z,7.97
2018-11-05T04:36:09.140Z,7.97
2018-11-05T04:37:09.145Z,7.95
2018-11-05T04:38:09.155Z,8.00
2018-11-05T04:39:09.167Z,8.00
2018-11-05T04:40:09.178Z,8.00
2018-11-05T04:41:09.187Z,7.97
2018-11-05T04:42:09.200Z,8.01
2018-11-05T04:43:09.207Z,8.01
2018-11-05T04:44:09.216Z,8.01
2018-11-05T04:45:09.229Z,7.98
2018-11-05T04:46:09.238Z,7.97
2018-11-05T04:48:09.874Z,7.89
2018-11-05T04:49:09.959Z,8.01
2018-11-05T04:50:09.286Z,7.97
2018-11-05T04:51:09.290Z,8.01
2018-11-05T04:52:09.301Z,7.98
2018-11-05T04:53:09.334Z,7.97
2018-11-05T04:54:09.325Z,7.97
2018-11-05T04:55:09.335Z,7.97
2018-11-05T04:56:09.347Z,8.00
2018-11-05T04:57:09.355Z,8.02
2018-11-05T04:58:09.420Z,7.95
2018-11-05T04:59:09.389Z,7.95
2018-11-05T05:00:09.386Z,7.95
2018-11-05T05:01:09.401Z,7.98
2018-11-05T05:02:09.408Z,7.98
2018-11-05T05:03:09.424Z,7.92
2018-11-05T05:04:09.448Z,7.89
2018-11-05T05:05:09.462Z,8.00
2018-11-05T05:06:09.457Z,7.95
2018-11-05T05:07:09.460Z,7.90
2018-11-05T05:08:09.473Z,7.97
2018-11-05T05:09:09.489Z,7.90
2018-11-05T05:10:09.493Z,8.00
2018-11-05T05:11:09.566Z,7.87
2018-11-05T05:12:09.519Z,7.89
2018-11-05T05:13:09.526Z,7.87
2018-11-05T05:14:09.532Z,7.89
2018-11-05T05:15:09.543Z,7.92
2018-11-05T05:16:09.564Z,7.89
2018-11-05T05:17:09.564Z,7.89
2018-11-05T05:19:09.709Z,7.86
2018-11-05T05:21:09.667Z,7.87
2018-11-05T05:22:09.618Z,7.86
2018-11-05T05:23:09.786Z,7.83
2018-11-05T05:24:09.645Z,7.86
2018-11-05T05:25:09.648Z,7.80
2018-11-05T05:26:09.659Z,7.82
2018-11-05T05:27:09.668Z,7.83
2018-11-05T05:28:09.679Z,7.77
2018-11-05T05:29:09.693Z,7.89
2018-11-05T05:30:09.792Z,7.79
2018-11-05T05:31:09.728Z,7.83
2018-11-05T05:32:09.738Z,7.87
2018-11-05T05:33:09.834Z,7.79
2018-11-05T05:34:09.742Z,7.80
2018-11-05T05:35:09.752Z,7.83
2018-11-05T05:36:09.764Z,7.85
2018-11-05T05:37:09.779Z,7.85
2018-11-05T05:38:09.797Z,7.83
2018-11-05T05:39:09.793Z,7.83
2018-11-05T05:40:09.806Z,7.85
2018-11-05T05:41:09.871Z,7.77
2018-11-05T05:42:10.102Z,7.83
2018-11-05T05:44:09.861Z,7.82
2018-11-05T05:45:09.858Z,7.75
2018-11-05T05:46:09.871Z,7.82
2018-11-05T05:47:09.881Z,7.86
2018-11-05T05:48:10.383Z,7.85
2018-11-05T05:50:09.998Z,7.83
2018-11-05T05:52:09.953Z,7.87
2018-11-05T05:53:09.999Z,7.92
2018-11-05T05:54:09.974Z,7.89
2018-11-05T05:55:09.998Z,7.86
2018-11-05T05:56:09.988Z,7.93
2018-11-05T05:57:09.993Z,8.00
2018-11-05T05:58:09.993Z,8.00
2018-11-05T05:59:10.006Z,7.97
2018-11-05T06:00:10.026Z,8.01
2018-11-05T06:01:10.031Z,7.97
2018-11-05T06:02:10.046Z,8.01
2018-11-05T06:03:10.044Z,7.98
2018-11-05T06:04:10.055Z,8.02
2018-11-05T06:05:10.068Z,8.08
2018-11-05T06:06:10.186Z,8.02
2018-11-05T06:07:10.090Z,8.07
2018-11-05T06:08:10.482Z,8.11
2018-11-05T06:10:10.119Z,8.18
2018-11-05T06:11:10.130Z,8.19
2018-11-05T06:12:10.136Z,8.08
2018-11-05T06:13:10.171Z,8.18
2018-11-05T06:14:10.167Z,8.15
2018-11-05T06:15:10.169Z,8.22
2018-11-05T06:16:10.199Z,8.23
2018-11-05T06:17:10.206Z,8.30
2018-11-05T06:18:10.211Z,8.30
2018-11-05T06:19:10.283Z,8.34
2018-11-05T06:20:10.325Z,8.33
2018-11-05T06:21:10.285Z,8.33
2018-11-05T06:22:10.252Z,8.40
2018-11-05T06:23:10.255Z,8.40
2018-11-05T06:24:10.257Z,8.45
2018-11-05T06:25:10.271Z,8.59
2018-11-05T06:26:10.282Z,8.47
2018-11-05T06:27:10.288Z,8.48
2018-11-05T06:28:10.298Z,8.65
2018-11-05T06:29:10.328Z,8.65
2018-11-05T06:30:10.324Z,8.68
2018-11-05T06:31:10.331Z,8.74
2018-11-05T06:32:10.348Z,8.63
2018-11-05T06:33:10.358Z,8.77
2018-11-05T06:34:10.364Z,8.80
2018-11-05T06:35:10.421Z,8.77
2018-11-05T06:36:10.402Z,8.73
2018-11-05T06:37:10.396Z,8.84
2018-11-05T06:38:10.414Z,8.79
2018-11-05T06:39:10.428Z,8.87
2018-11-05T06:40:10.428Z,8.83
2018-11-05T06:41:10.520Z,8.92
2018-11-05T06:42:10.449Z,9.01
2018-11-05T06:43:10.460Z,8.99
2018-11-05T06:44:10.531Z,9.04
2018-11-05T06:45:10.494Z,9.02
2018-11-05T06:46:10.891Z,8.92
2018-11-05T06:47:10.501Z,9.08
2018-11-05T06:48:10.515Z,9.08
2018-11-05T06:49:10.536Z,9.05
2018-11-05T06:50:10.705Z,9.10
2018-11-05T06:51:10.545Z,9.11
2018-11-05T06:53:10.569Z,9.13
2018-11-05T06:54:10.579Z,9.10
2018-11-05T06:55:10.590Z,9.20
2018-11-05T06:56:10.599Z,9.18
2018-11-05T06:57:10.611Z,9.15
2018-11-05T06:58:10.628Z,9.17
2018-11-05T06:59:10.634Z,9.20
2018-11-05T07:00:10.642Z,9.24
2018-11-05T07:01:10.658Z,9.24
2018-11-05T07:02:10.665Z,9.20
2018-11-05T07:03:11.347Z,9.26
2018-11-05T07:04:10.688Z,9.24
2018-11-05T07:05:10.697Z,9.31
2018-11-05T07:06:10.719Z,9.40
2018-11-05T07:07:10.723Z,9.40
2018-11-05T07:08:10.732Z,9.38
2018-11-05T07:09:10.745Z,9.39
2018-11-05T07:10:10.751Z,9.38
2018-11-05T07:11:10.782Z,9.42
2018-11-05T07:12:10.936Z,9.36
2018-11-05T07:13:10.833Z,9.40
2018-11-05T07:14:10.816Z,9.54
2018-11-05T07:15:10.807Z,9.43
2018-11-05T07:16:10.838Z,9.42
2018-11-05T07:17:10.827Z,9.51
2018-11-05T07:18:11.166Z,9.57
2018-11-05T07:19:11.190Z,9.46
2018-11-05T07:20:10.861Z,9.53
2018-11-05T07:21:10.927Z,9.47
2018-11-05T07:22:11.485Z,9.54
2018-11-05T07:25:12.205Z,9.56
2018-11-05T07:27:10.994Z,9.54
2018-11-05T07:28:10.949Z,9.56
2018-11-05T07:29:11.061Z,9.64
2018-11-05T07:30:10.980Z,9.51
2018-11-05T07:31:11.310Z,9.66
2018-11-05T07:32:11.253Z,9.68
2018-11-05T07:33:11.072Z,9.69
2018-11-05T07:34:11.492Z,9.65
2018-11-05T07:35:11.031Z,9.68
2018-11-05T07:36:11.039Z,9.61
2018-11-05T07:37:11.063Z,9.71
2018-11-05T07:38:11.074Z,9.74
2018-11-05T07:39:11.079Z,9.71
2018-11-05T07:40:11.086Z,9.72
2018-11-05T07:41:11.099Z,9.79
2018-11-05T07:42:11.585Z,9.76
2018-11-05T07:43:11.184Z,9.83
2018-11-05T07:44:11.136Z,9.89
2018-11-05T07:46:11.168Z,9.87
2018-11-05T07:47:11.167Z,9.93
2018-11-05T07:48:11.413Z,9.86
2018-11-05T07:49:11.189Z,9.91
2018-11-05T07:50:11.258Z,9.89
2018-11-05T07:51:11.213Z,9.91
2018-11-05T07:52:11.237Z,9.87
2018-11-05T07:53:11.235Z,9.94
2018-11-05T07:54:11.244Z,10.02
2018-11-05T07:56:11.586Z,9.90
2018-11-05T07:57:11.485Z,9.93
2018-11-05T07:58:11.383Z,9.93
2018-11-05T07:59:11.364Z,9.89
2018-11-05T08:00:11.321Z,10.01
2018-11-05T08:01:11.342Z,10.01
2018-11-05T08:02:12.363Z,10.04
2018-11-05T08:04:11.350Z,10.08
2018-11-05T08:05:11.363Z,10.04
2018-11-05T08:06:11.376Z,10.04
2018-11-05T08:07:12.575Z,10.09
2018-11-05T08:08:11.413Z,10.09
2018-11-05T08:09:12.035Z,10.15
2018-11-05T08:10:11.421Z,10.20
2018-11-05T08:11:11.507Z,10.11
2018-11-05T08:12:11.825Z,10.17
2018-11-05T08:13:12.151Z,10.09
2018-11-05T08:14:11.484Z,10.11
2018-11-05T08:15:11.496Z,10.26
2018-11-05T08:16:11.690Z,10.20
2018-11-05T08:17:11.501Z,10.20
2018-11-05T08:18:11.511Z,10.17
2018-11-05T08:19:11.525Z,10.23
2018-11-05T08:20:11.535Z,10.33
2018-11-05T08:21:11.547Z,10.33
2018-11-05T08:22:11.557Z,10.26
2018-11-05T08:23:11.577Z,10.34
2018-11-05T08:24:11.616Z,10.38
2018-11-05T08:25:11.705Z,10.47
2018-11-05T08:27:11.619Z,10.47
2018-11-05T08:29:12.064Z,10.61
2018-11-05T08:31:12.023Z,10.59
2018-11-05T08:32:11.676Z,10.52
2018-11-05T08:33:11.687Z,10.61
2018-11-05T08:34:11.757Z,10.55
2018-11-05T08:35:11.717Z,10.61
2018-11-05T08:36:11.719Z,10.68
2018-11-05T08:37:11.732Z,10.73
2018-11-05T08:38:11.741Z,10.74
2018-11-05T08:39:11.758Z,10.71
2018-11-05T08:40:11.856Z,10.84
2018-11-05T08:41:11.781Z,10.94
2018-11-05T08:42:11.789Z,10.91
2018-11-05T08:43:11.798Z,10.99
2018-11-05T08:44:11.969Z,11.03
2018-11-05T08:45:11.849Z,11.06
2018-11-05T08:46:11.835Z,11.09
2018-11-05T08:47:11.847Z,11.15
2018-11-05T08:48:11.858Z,11.11
2018-11-05T08:49:11.874Z,11.21
2018-11-05T08:50:11.975Z,11.33
2018-11-05T08:51:12.057Z,11.27
2018-11-05T08:52:11.908Z,11.32
2018-11-05T08:53:11.920Z,11.35
2018-11-05T08:54:12.024Z,11.32
2018-11-05T08:55:11.964Z,11.39
2018-11-05T08:57:11.972Z,11.39
2018-11-05T08:58:11.980Z,11.43
2018-11-05T09:01:12.074Z,11.46
2018-11-05T09:02:12.383Z,11.42
2018-11-05T09:03:12.524Z,11.47
2018-11-05T09:04:12.052Z,11.47
2018-11-05T09:05:12.192Z,11.39
2018-11-05T09:06:12.082Z,11.42
2018-11-05T09:07:12.096Z,11.47
2018-11-05T09:08:12.100Z,11.43
2018-11-05T09:09:12.116Z,11.52
2018-11-05T09:10:12.237Z,11.57
2018-11-05T09:11:12.462Z,11.51
2018-11-05T09:12:12.269Z,11.58
2018-11-05T09:13:12.162Z,11.55
2018-11-05T09:14:12.179Z,11.51
2018-11-05T09:15:12.236Z,11.52
2018-11-05T09:16:12.430Z,11.52
2018-11-05T09:17:12.238Z,11.47
2018-11-05T09:18:12.365Z,11.51
2018-11-05T09:19:12.263Z,11.55
2018-11-05T09:20:12.258Z,11.54
2018-11-05T09:21:12.262Z,11.54
2018-11-05T09:22:12.278Z,11.54
2018-11-05T09:23:12.347Z,11.67
2018-11-05T09:24:12.545Z,11.57
2018-11-05T09:25:12.317Z,11.65
2018-11-05T09:26:12.330Z,11.54
2018-11-05T09:27:12.337Z,11.65
2018-11-05T09:28:12.347Z,11.60
2018-11-05T09:29:12.359Z,11.58
2018-11-05T09:30:12.428Z,11.58
2018-11-05T09:31:12.382Z,11.60
2018-11-05T09:32:12.399Z,11.70
2018-11-05T09:33:12.412Z,11.65
2018-11-05T09:34:12.424Z,11.57
2018-11-05T09:35:12.452Z,11.57
2018-11-05T09:36:12.447Z,11.58
2018-11-05T09:37:12.949Z,11.65
2018-11-05T09:38:12.717Z,11.67
2018-11-05T09:39:12.480Z,11.72
2018-11-05T09:40:12.559Z,11.72
2018-11-05T09:41:12.509Z,11.79
2018-11-05T09:42:12.518Z,11.69
2018-11-05T09:43:12.533Z,11.75
2018-11-05T09:44:12.544Z,11.69
2018-11-05T09:45:12.573Z,11.64
2018-11-05T09:46:12.578Z,11.72
2018-11-05T09:47:13.055Z,11.57
2018-11-05T09:48:12.597Z,11.58
2018-11-05T09:49:12.608Z,11.60
2018-11-05T09:50:12.625Z,11.65
2018-11-05T09:51:12.638Z,11.67
2018-11-05T09:52:13.409Z,11.69
2018-11-05T09:53:12.721Z,11.65
2018-11-05T09:54:12.673Z,11.62
2018-11-05T09:55:12.679Z,11.73
2018-11-05T09:56:12.692Z,11.70
2018-11-05T09:57:12.711Z,11.70
2018-11-05T09:58:14.006Z,11.75
2018-11-05T10:00:12.767Z,11.78
2018-11-05T10:01:13.046Z,11.75
2018-11-05T10:03:13.319Z,11.73
2018-11-05T10:04:12.960Z,11.76
2018-11-05T10:05:13.108Z,11.83
2018-11-05T10:06:12.807Z,11.76
2018-11-05T10:07:12.820Z,11.85
2018-11-05T10:08:12.836Z,11.91
2018-11-05T10:09:12.856Z,11.88
2018-11-05T10:10:12.889Z,11.85
2018-11-05T10:11:12.882Z,11.85
2018-11-05T10:12:12.900Z,11.94
2018-11-05T10:13:12.905Z,11.85
2018-11-05T10:14:12.906Z,11.91
2018-11-05T10:15:12.971Z,11.91
2018-11-05T10:16:12.946Z,11.98
2018-11-05T10:17:12.969Z,11.99
2018-11-05T10:18:12.955Z,11.99
2018-11-05T10:19:12.967Z,11.98
2018-11-05T10:20:13.074Z,11.99
2018-11-05T10:21:12.999Z,11.99
2018-11-05T10:22:13.112Z,11.95
2018-11-05T10:23:13.066Z,11.98
2018-11-05T10:24:13.049Z,11.96
2018-11-05T10:25:13.118Z,12.02
2018-11-05T10:26:13.109Z,11.99
2018-11-05T10:27:13.066Z,11.99
2018-11-05T10:28:13.088Z,11.99
2018-11-05T10:29:13.101Z,12.04
2018-11-05T10:30:13.105Z,12.09
2018-11-05T10:31:13.152Z,12.05
2018-11-05T10:32:13.134Z,12.10
2018-11-05T10:33:13.264Z,12.07
2018-11-05T10:34:13.559Z,12.14
2018-11-05T10:35:13.169Z,12.07
2018-11-05T10:36:13.185Z,12.16
2018-11-05T10:37:13.194Z,12.10
2018-11-05T10:38:13.681Z,12.12
2018-11-05T10:40:14.032Z,12.10
2018-11-05T10:41:13.245Z,12.09
2018-11-05T10:42:13.254Z,12.10
2018-11-05T10:43:13.269Z,12.07
2018-11-05T10:44:13.318Z,12.14
2018-11-05T10:45:13.413Z,12.27
2018-11-05T10:46:13.359Z,12.16
2018-11-05T10:47:13.318Z,12.16
2018-11-05T10:48:13.351Z,12.23
2018-11-05T10:49:13.452Z,12.19
2018-11-05T10:50:13.371Z,12.29
2018-11-05T10:51:13.442Z,12.32
2018-11-05T10:52:13.641Z,12.32
2018-11-05T10:53:13.399Z,12.32
2018-11-05T10:54:13.409Z,12.34
2018-11-05T10:55:13.418Z,12.29
2018-11-05T10:56:13.429Z,12.45
2018-11-05T10:57:13.446Z,12.39
2018-11-05T10:58:13.529Z,12.46
2018-11-05T10:59:13.464Z,12.50
2018-11-05T11:00:13.701Z,12.39
2018-11-05T11:01:13.498Z,12.46
2018-11-05T11:02:13.529Z,12.45
2018-11-05T11:03:13.514Z,12.47
2018-11-05T11:04:13.533Z,12.39
2018-11-05T11:05:13.559Z,12.32
2018-11-05T11:06:13.553Z,12.47
2018-11-05T11:07:13.572Z,12.50
2018-11-05T11:08:13.581Z,12.49
2018-11-05T11:09:13.591Z,12.49
2018-11-05T11:10:13.605Z,12.59
2018-11-05T11:11:13.616Z,12.62
2018-11-05T11:12:13.680Z,12.56
2018-11-05T11:13:13.647Z,12.60
2018-11-05T11:14:13.667Z,12.71
2018-11-05T11:15:13.735Z,12.70
2018-11-05T11:16:13.680Z,12.67
2018-11-05T11:17:13.693Z,12.56
2018-11-05T11:18:13.709Z,12.65
2018-11-05T11:19:13.718Z,12.65
2018-11-05T11:20:14.596Z,12.62
2018-11-05T11:21:13.753Z,12.57
2018-11-05T11:22:13.871Z,12.60
2018-11-05T11:23:13.769Z,12.57
2018-11-05T11:24:13.781Z,12.64
2018-11-05T11:25:13.801Z,12.67
2018-11-05T11:26:13.811Z,12.67
2018-11-05T11:27:13.822Z,12.72
2018-11-05T11:28:13.877Z,12.75
2018-11-05T11:29:13.969Z,12.75
2018-11-05T11:30:13.858Z,12.78
2018-11-05T11:31:13.875Z,12.78
2018-11-05T11:32:13.888Z,12.74
2018-11-05T11:33:13.899Z,12.86
2018-11-05T11:34:13.908Z,12.90
2018-11-05T11:35:13.922Z,13.01
2018-11-05T11:36:13.939Z,12.93
2018-11-05T11:37:14.056Z,13.01
2018-11-05T11:38:13.968Z,13.08
2018-11-05T11:39:13.972Z,13.05
2018-11-05T11:40:13.984Z,13.05
2018-11-05T11:41:13.996Z,13.15
2018-11-05T11:42:14.028Z,13.14
2018-11-05T11:43:14.026Z,13.11
2018-11-05T11:44:14.280Z,13.05
2018-11-05T11:45:14.059Z,13.08
2018-11-05T11:46:14.071Z,13.05
2018-11-05T11:47:14.642Z,13.04
2018-11-05T11:48:14.636Z,13.07
2018-11-05T11:49:14.143Z,13.08
2018-11-05T11:50:14.117Z,13.14
2018-11-05T11:51:14.128Z,13.20
2018-11-05T11:52:14.139Z,13.25
2018-11-05T11:53:14.302Z,13.25
2018-11-05T11:54:14.169Z,13.29
2018-11-05T11:55:14.193Z,13.29
2018-11-05T11:56:14.191Z,13.23
2018-11-05T11:57:14.214Z,13.20
2018-11-05T11:58:14.219Z,13.25
2018-11-05T11:59:14.236Z,13.25
2018-11-05T12:00:14.251Z,13.20
2018-11-05T12:01:14.973Z,13.29
2018-11-05T12:02:14.307Z,13.25
2018-11-05T12:03:14.291Z,13.28
2018-11-05T12:04:14.301Z,13.22
2018-11-05T12:05:14.469Z,13.19
2018-11-05T12:06:14.387Z,13.19
2018-11-05T12:07:14.339Z,13.15
2018-11-05T12:08:14.357Z,13.23
2018-11-05T12:09:14.365Z,13.20
2018-11-05T12:10:14.375Z,13.15
2018-11-05T12:11:14.390Z,13.15
2018-11-05T12:12:14.405Z,13.15
2018-11-05T12:13:14.418Z,13.23
2018-11-05T12:14:14.498Z,13.20
2018-11-05T12:16:15.224Z,13.26
2018-11-05T12:17:14.468Z,13.28
2018-11-05T12:18:14.601Z,13.28
2018-11-05T12:20:14.531Z,13.30
2018-11-05T12:21:14.522Z,13.30
2018-11-05T12:22:14.534Z,13.29
2018-11-05T12:23:14.548Z,13.41
2018-11-05T12:24:14.557Z,13.52
2018-11-05T12:25:14.574Z,13.45
2018-11-05T12:26:14.587Z,13.48
2018-11-05T12:27:14.602Z,13.46
2018-11-05T12:28:14.628Z,13.52
2018-11-05T12:29:16.270Z,13.59
2018-11-05T12:30:14.640Z,13.55
2018-11-05T12:31:14.654Z,13.60
2018-11-05T12:32:14.727Z,13.63
2018-11-05T12:33:14.688Z,13.60
2018-11-05T12:34:14.694Z,13.59
2018-11-05T12:35:14.705Z,13.67
2018-11-05T12:36:14.722Z,13.66
2018-11-05T12:37:14.943Z,13.69
2018-11-05T12:38:14.752Z,13.59
2018-11-05T12:39:14.762Z,13.66
2018-11-05T12:40:14.857Z,13.59
2018-11-05T12:41:14.847Z,13.57
2018-11-05T12:42:14.802Z,13.63
2018-11-05T12:43:15.226Z,13.59
2018-11-05T12:44:14.824Z,13.55
2018-11-05T12:45:14.840Z,13.62
2018-11-05T12:46:14.858Z,13.54
2018-11-05T12:47:14.862Z,13.52
2018-11-05T12:48:14.938Z,13.57
2018-11-05T12:49:14.898Z,13.63
2018-11-05T12:50:15.100Z,13.63
2018-11-05T12:51:14.925Z,13.60
2018-11-05T12:52:14.929Z,13.62
2018-11-05T12:53:14.941Z,13.62
2018-11-05T12:54:14.959Z,13.67
2018-11-05T12:55:14.967Z,13.62
2018-11-05T12:56:14.983Z,13.71
2018-11-05T12:57:15.007Z,13.69
2018-11-05T12:58:15.079Z,13.69
2018-11-05T12:59:15.028Z,13.73
2018-11-05T13:00:15.038Z,13.75
2018-11-05T13:02:15.061Z,13.60
2018-11-05T13:03:15.078Z,13.60
2018-11-05T13:04:15.215Z,13.63
2018-11-05T13:05:15.104Z,13.66
2018-11-05T13:06:15.136Z,13.67
2018-11-05T13:07:15.143Z,13.59
2018-11-05T13:08:15.142Z,13.67
2018-11-05T13:09:15.156Z,13.71
2018-11-05T13:10:15.176Z,13.70
2018-11-05T13:11:15.216Z,13.73
2018-11-05T13:12:15.195Z,13.71
2018-11-05T13:13:15.216Z,13.77
2018-11-05T13:14:15.220Z,13.73
2018-11-05T13:16:15.253Z,13.75
2018-11-05T13:17:15.263Z,13.73
2018-11-05T13:18:15.278Z,13.73
2018-11-05T13:19:15.291Z,13.69
2018-11-05T13:20:15.301Z,13.71
2018-11-05T13:21:15.314Z,13.71
2018-11-05T13:22:15.377Z,13.70
2018-11-05T13:23:15.348Z,13.71
2018-11-05T13:24:15.397Z,13.81
2018-11-05T13:25:15.371Z,13.71
2018-11-05T13:26:15.828Z,13.71
2018-11-05T13:27:15.489Z,13.67
2018-11-05T13:28:17.105Z,13.60
2018-11-05T13:29:15.426Z,13.75
2018-11-05T13:31:15.989Z,13.71
2018-11-05T13:32:15.463Z,13.73
2018-11-05T13:33:15.643Z,13.73
2018-11-05T13:34:15.513Z,13.64
2018-11-05T13:35:15.545Z,13.63
2018-11-05T13:36:15.542Z,13.71
2018-11-05T13:37:15.901Z,13.57
2018-11-05T13:38:16.316Z,13.70
2018-11-05T13:39:15.561Z,13.69
2018-11-05T13:40:15.571Z,13.67
2018-11-05T13:41:15.582Z,13.71
2018-11-05T13:42:15.603Z,13.77
2018-11-05T13:43:15.607Z,13.71